Time;durP1;ratioP1;P1;durP2;ratioP2;P2;SDS_P1;SDS_P2;PMS_P1;PMS_P2;Temp;Humidity;BMP_temperature;BMP_pressure;BME280_temperature;BME280_humidity;BME280_pressure;Samples;Min_cycle;Max_cycle;Signal;HPM_P1;HPM_P2
2023/07/18 00:01:37;;;;;;;1.00;1.00;;;23.70;71.40;;;;;;5060325;28;43486;-71
2023/07/18 00:04:07;;;;;;;0.80;0.80;;;23.60;71.30;;;;;;5072947;28;43499;-71
2023/07/18 00:06:37;;;;;;;0.90;0.90;;;23.60;71.50;;;;;;5079361;28;43608;-72
2023/07/18 00:09:06;;;;;;;0.80;0.80;;;23.50;71.80;;;;;;5064725;28;44903;-71
2023/07/18 00:11:34;;;;;;;0.80;0.80;;;23.50;71.80;;;;;;5067494;28;43830;-71
2023/07/18 00:14:02;;;;;;;0.80;0.80;;;23.50;71.80;;;;;;5067119;28;43446;-71
2023/07/18 00:16:30;;;;;;;0.90;0.90;;;23.50;71.80;;;;;;5082523;28;43686;-71
2023/07/18 00:18:59;;;;;;;0.90;0.90;;;23.40;72.10;;;;;;5062481;28;44392;-71
2023/07/18 00:21:28;;;;;;;0.87;0.87;;;23.50;72.00;;;;;;5072742;28;43436;-78
2023/07/18 00:23:58;;;;;;;0.80;0.80;;;23.60;71.90;;;;;;5074583;28;43384;-70
2023/07/18 00:26:26;;;;;;;0.70;0.70;;;23.70;71.30;;;;;;5067754;28;43655;-70
2023/07/18 00:28:54;;;;;;;1.00;1.00;;;23.80;71.00;;;;;;5067471;28;44004;-71
2023/07/18 00:31:22;;;;;;;1.00;1.00;;;23.80;70.70;;;;;;5066758;28;44003;-70
2023/07/18 00:33:49;;;;;;;0.83;0.83;;;23.80;70.80;;;;;;5066499;28;43416;-71
2023/07/18 00:36:17;;;;;;;0.80;0.80;;;23.80;70.90;;;;;;5068533;28;43771;-70
2023/07/18 00:38:47;;;;;;;0.87;0.87;;;23.70;71.20;;;;;;5086373;28;43426;-70
2023/07/18 00:41:15;;;;;;;0.80;0.80;;;23.70;71.40;;;;;;5075703;28;43963;-72
2023/07/18 00:43:43;;;;;;;0.90;0.90;;;23.70;71.40;;;;;;5066007;28;43495;-72
2023/07/18 00:46:11;;;;;;;1.00;1.00;;;23.60;71.40;;;;;;5066744;28;45954;-71
2023/07/18 00:48:39;;;;;;;0.90;0.90;;;23.60;71.70;;;;;;5080429;28;43432;-74
2023/07/18 00:51:08;;;;;;;0.70;0.70;;;23.50;71.80;;;;;;5079078;28;43439;-71
2023/07/18 00:53:36;;;;;;;0.80;0.80;;;23.50;71.90;;;;;;5066250;28;43429;-71
2023/07/18 00:56:06;;;;;;;0.77;0.77;;;23.50;71.80;;;;;;5083724;28;43575;-72
2023/07/18 00:58:34;;;;;;;0.80;0.70;;;23.50;71.60;;;;;;5071606;28;44670;-71
2023/07/18 01:01:02;;;;;;;0.83;0.83;;;23.50;72.10;;;;;;5080525;28;43416;-70
2023/07/18 01:03:30;;;;;;;0.77;0.77;;;23.50;71.90;;;;;;5081959;28;43391;-70
2023/07/18 01:05:58;;;;;;;0.80;0.80;;;23.60;71.70;;;;;;5069704;28;45740;-70
2023/07/18 01:08:26;;;;;;;0.90;0.90;;;23.70;71.30;;;;;;5072685;28;44850;-70
2023/07/18 01:10:54;;;;;;;0.80;0.80;;;23.70;70.90;;;;;;5085522;28;43363;-71
2023/07/18 01:13:24;;;;;;;1.00;1.00;;;23.80;70.90;;;;;;5082705;28;43446;-70
2023/07/18 01:15:52;;;;;;;0.77;0.77;;;23.70;70.90;;;;;;5072499;28;45149;-70
2023/07/18 01:18:20;;;;;;;0.80;0.80;;;23.70;71.00;;;;;;5079513;28;43363;-70
2023/07/18 01:20:48;;;;;;;0.80;0.80;;;23.60;71.40;;;;;;5070805;28;43929;-70
2023/07/18 01:23:18;;;;;;;0.80;0.80;;;23.60;71.40;;;;;;5071081;28;43430;-77
2023/07/18 01:25:46;;;;;;;0.80;0.80;;;23.60;71.50;;;;;;5069493;28;45623;-70
2023/07/18 01:28:14;;;;;;;0.70;0.70;;;23.50;71.40;;;;;;5073600;28;43969;-71
2023/07/18 01:30:42;;;;;;;0.70;0.70;;;23.50;71.80;;;;;;5072315;28;43894;-70
2023/07/18 01:33:10;;;;;;;0.77;0.77;;;23.50;71.70;;;;;;5068612;28;43456;-70
2023/07/18 01:35:40;;;;;;;0.87;0.87;;;23.60;71.50;;;;;;5070374;28;45830;-70
2023/07/18 01:38:07;;;;;;;0.70;0.70;;;23.60;71.30;;;;;;5089740;28;43501;-70
2023/07/18 01:40:37;;;;;;;0.90;0.90;;;23.60;71.20;;;;;;5070699;28;43468;-72
2023/07/18 01:43:05;;;;;;;1.00;1.00;;;23.60;71.40;;;;;;5070154;28;43518;-71
2023/07/18 01:45:37;;;;;;;0.70;0.70;;;23.60;71.60;;;;;;5080072;28;43753;-72
2023/07/18 01:48:05;;;;;;;0.60;0.60;;;23.60;71.50;;;;;;5072299;28;43832;-71
2023/07/18 01:50:34;;;;;;;0.73;0.73;;;23.60;71.50;;;;;;5062441;28;43437;-71
2023/07/18 01:53:02;;;;;;;0.87;0.87;;;23.50;71.40;;;;;;5077024;28;43375;-74
2023/07/18 01:55:32;;;;;;;0.90;0.90;;;23.50;71.80;;;;;;5082267;28;43616;-71
2023/07/18 01:58:02;;;;;;;0.90;0.90;;;23.50;71.80;;;;;;5069871;28;44976;-71
2023/07/18 02:00:31;;;;;;;0.80;0.80;;;23.60;71.50;;;;;;5069410;28;43986;-72
2023/07/18 02:02:59;;;;;;;0.80;0.80;;;23.70;71.20;;;;;;5082625;28;43456;-71
2023/07/18 02:05:27;;;;;;;0.80;0.80;;;23.70;70.70;;;;;;5081765;28;43833;-71
2023/07/18 02:07:57;;;;;;;0.97;0.97;;;23.70;70.70;;;;;;5071027;28;44428;-72
2023/07/18 02:10:25;;;;;;;0.90;0.90;;;23.70;70.90;;;;;;5071967;28;43814;-71
2023/07/18 02:12:55;;;;;;;0.77;0.77;;;23.60;70.90;;;;;;5082604;28;43861;-71
2023/07/18 02:15:24;;;;;;;0.97;0.97;;;23.60;71.30;;;;;;5082887;28;43898;-71
2023/07/18 02:17:52;;;;;;;0.90;0.90;;;23.60;71.40;;;;;;5087390;28;43419;-71
2023/07/18 02:20:20;;;;;;;0.80;0.80;;;23.60;71.40;;;;;;5071702;28;43420;-72
2023/07/18 02:22:49;;;;;;;1.10;1.10;;;23.50;71.30;;;;;;5069659;28;43582;-71
2023/07/18 02:25:17;;;;;;;0.97;0.97;;;23.50;71.80;;;;;;5073966;28;43612;-71
2023/07/18 02:27:45;;;;;;;0.73;0.73;;;23.50;71.80;;;;;;5077624;28;43474;-71
2023/07/18 02:30:13;;;;;;;0.80;0.80;;;23.50;71.80;;;;;;5071598;28;43383;-78
2023/07/18 02:32:43;;;;;;;1.00;1.00;;;23.40;71.70;;;;;;5081304;28;43576;-71
2023/07/18 02:35:15;;;;;;;0.90;0.90;;;23.40;71.70;;;;;;5087008;28;43596;-71
2023/07/18 02:37:43;;;;;;;0.90;0.90;;;23.40;71.90;;;;;;5068237;28;43416;-71
2023/07/18 02:40:12;;;;;;;1.03;1.03;;;23.50;71.80;;;;;;5069578;28;43524;-71
2023/07/18 02:42:40;;;;;;;0.97;0.97;;;23.60;71.40;;;;;;5077585;28;43440;-71
2023/07/18 02:45:09;;;;;;;0.80;0.80;;;23.70;70.90;;;;;;5071077;28;45936;-71
2023/07/18 02:47:39;;;;;;;0.90;0.90;;;23.70;70.60;;;;;;5070783;28;44437;-71
2023/07/18 02:50:09;;;;;;;0.87;0.87;;;23.70;70.60;;;;;;5084788;28;44088;-71
2023/07/18 02:52:37;;;;;;;0.80;0.80;;;23.70;70.80;;;;;;5071896;28;43459;-70
2023/07/18 02:55:06;;;;;;;0.97;0.97;;;23.60;70.80;;;;;;5079244;28;43705;-70
2023/07/18 02:57:35;;;;;;;0.90;0.90;;;23.60;71.20;;;;;;5077188;28;43347;-71
2023/07/18 03:00:06;;;;;;;0.90;0.90;;;23.60;71.20;;;;;;5067597;28;43457;-74
2023/07/18 03:02:35;;;;;;;0.73;0.73;;;23.60;71.30;;;;;;5064397;28;43969;-71
2023/07/18 03:05:03;;;;;;;0.90;0.90;;;23.50;71.20;;;;;;5070364;28;43916;-71
2023/07/18 03:07:32;;;;;;;0.97;0.97;;;23.50;71.70;;;;;;5067777;28;43967;-71
2023/07/18 03:10:00;;;;;;;0.90;0.90;;;23.50;71.60;;;;;;5067452;28;43551;-71
2023/07/18 03:12:28;;;;;;;0.80;0.80;;;23.60;71.30;;;;;;5062623;28;43423;-71
2023/07/18 03:14:56;;;;;;;0.90;0.90;;;23.70;70.90;;;;;;5070457;28;45703;-71
2023/07/18 03:17:24;;;;;;;1.00;1.00;;;23.70;70.60;;;;;;5067837;28;45015;-71
2023/07/18 03:19:55;;;;;;;1.07;1.07;;;23.70;70.50;;;;;;5088677;28;43387;-71
2023/07/18 03:22:23;;;;;;;0.80;0.80;;;23.70;70.60;;;;;;5071241;28;43510;-72
2023/07/18 03:24:52;;;;;;;0.90;0.90;;;23.60;70.70;;;;;;5064082;28;44602;-71
2023/07/18 03:27:21;;;;;;;0.80;0.80;;;23.60;71.00;;;;;;5083463;28;43484;-71
2023/07/18 03:29:49;;;;;;;0.87;0.87;;;23.60;71.10;;;;;;5070541;28;43744;-71
2023/07/18 03:32:20;;;;;;;0.80;0.80;;;23.60;71.20;;;;;;5078896;28;43956;-71
2023/07/18 03:34:48;;;;;;;1.00;1.00;;;23.50;71.10;;;;;;5080974;28;43575;-71
2023/07/18 03:37:15;;;;;;;0.90;0.90;;;23.50;71.60;;;;;;5083539;28;43356;-71
2023/07/18 03:39:44;;;;;;;0.80;0.80;;;23.50;71.60;;;;;;5078352;28;44026;-72
2023/07/18 03:42:14;;;;;;;0.80;0.80;;;23.50;71.70;;;;;;5077330;28;43603;-71
2023/07/18 03:44:43;;;;;;;0.90;0.90;;;23.40;71.40;;;;;;5082191;28;43849;-71
2023/07/18 03:47:11;;;;;;;0.80;0.80;;;23.40;71.70;;;;;;5080512;28;43418;-71
2023/07/18 03:49:48;;;;;;;1.10;1.10;;;23.40;71.70;;;;;;5062010;28;43849;-71
2023/07/18 03:52:16;;;;;;;0.80;0.80;;;23.40;71.50;;;;;;5075573;28;43585;-70
2023/07/18 03:54:45;;;;;;;0.80;0.80;;;23.60;71.20;;;;;;5071633;28;43595;-70
2023/07/18 03:57:15;;;;;;;1.07;1.07;;;23.70;70.90;;;;;;5080004;28;44124;-70
2023/07/18 03:59:43;;;;;;;1.10;1.10;;;23.70;70.50;;;;;;5083219;28;43475;-70
2023/07/18 04:02:12;;;;;;;0.87;0.87;;;23.70;70.40;;;;;;5083277;28;43371;-70
2023/07/18 04:04:41;;;;;;;1.90;0.80;;;23.70;70.50;;;;;;5065811;28;45391;-71
2023/07/18 04:07:09;;;;;;;1.00;1.00;;;23.60;70.60;;;;;;5074356;28;43497;-71
2023/07/18 04:09:37;;;;;;;0.90;0.90;;;23.60;71.00;;;;;;5070034;28;43420;-72
2023/07/18 04:12:06;;;;;;;1.00;1.00;;;23.60;71.00;;;;;;5086386;28;43322;-70
2023/07/18 04:14:36;;;;;;;0.90;0.90;;;23.50;71.00;;;;;;5075051;28;43624;-70
2023/07/18 04:17:04;;;;;;;0.93;0.93;;;23.50;71.00;;;;;;5067032;28;44744;-70
2023/07/18 04:19:32;;;;;;;0.87;0.87;;;23.40;71.50;;;;;;5065634;28;43422;-72
2023/07/18 04:22:00;;;;;;;0.90;0.90;;;23.40;71.50;;;;;;5073875;28;43933;-70
2023/07/18 04:24:28;;;;;;;1.10;1.10;;;23.40;71.50;;;;;;5064065;28;45726;-70
2023/07/18 04:26:56;;;;;;;1.13;1.13;;;23.40;71.40;;;;;;5066324;28;45030;-71
2023/07/18 04:29:24;;;;;;;0.80;0.80;;;23.40;71.80;;;;;;5067202;28;44056;-71
2023/07/18 04:31:53;;;;;;;1.00;1.00;;;23.40;71.80;;;;;;5075745;28;43776;-70
2023/07/18 04:34:21;;;;;;;1.10;1.10;;;23.40;71.40;;;;;;5080171;28;43847;-70
2023/07/18 04:36:49;;;;;;;1.00;1.00;;;23.50;71.00;;;;;;5076667;28;43486;-70
2023/07/18 04:39:17;;;;;;;0.87;0.87;;;23.60;70.70;;;;;;5075407;28;43739;-71
2023/07/18 04:41:45;;;;;;;1.00;1.00;;;23.70;70.60;;;;;;5070454;28;44155;-70
2023/07/18 04:44:22;;;;;;;0.97;0.97;;;23.70;70.30;;;;;;5079329;28;43784;-72
2023/07/18 04:46:52;;;;;;;2.20;1.10;;;23.60;70.20;;;;;;5075501;28;44058;-71
2023/07/18 04:49:24;;;;;;;1.20;1.20;;;23.60;70.80;;;;;;5073665;28;43329;-70
2023/07/18 04:51:53;;;;;;;1.53;1.53;;;23.50;69.90;;;;;;5079362;28;43411;-77
2023/07/18 04:54:21;;;;;;;2.20;1.50;;;23.50;68.70;;;;;;5078881;28;44877;-70
2023/07/18 04:56:53;;;;;;;1.77;1.57;;;23.40;69.40;;;;;;5068108;28;43542;-70
2023/07/18 04:59:21;;;;;;;1.50;1.50;;;23.40;69.00;;;;;;5066755;28;43510;-72
2023/07/18 05:01:52;;;;;;;1.60;1.50;;;23.40;68.00;;;;;;5085872;28;43352;-71
2023/07/18 05:04:22;;;;;;;1.80;1.70;;;23.40;68.70;;;;;;5067595;28;43878;-71
2023/07/18 05:06:50;;;;;;;1.23;1.23;;;23.30;69.10;;;;;;5063567;28;44689;-70
2023/07/18 05:09:18;;;;;;;1.30;1.30;;;23.30;69.30;;;;;;5067613;28;43444;-70
2023/07/18 05:11:47;;;;;;;1.53;1.40;;;23.30;69.70;;;;;;5075855;28;43883;-70
2023/07/18 05:14:15;;;;;;;1.33;1.30;;;23.30;69.70;;;;;;5074188;28;43548;-71
2023/07/18 05:16:42;;;;;;;1.60;1.60;;;23.40;69.40;;;;;;5068901;28;43411;-71
2023/07/18 05:19:10;;;;;;;1.73;1.53;;;23.50;69.00;;;;;;5073955;28;43797;-71
2023/07/18 05:21:40;;;;;;;1.73;1.40;;;23.60;69.00;;;;;;5083666;28;43480;-71
2023/07/18 05:24:08;;;;;;;1.30;1.30;;;23.60;69.00;;;;;;5073416;28;43620;-71
2023/07/18 05:26:36;;;;;;;1.30;1.30;;;23.60;69.20;;;;;;5067025;28;43347;-71
2023/07/18 05:29:04;;;;;;;1.40;1.40;;;23.50;69.30;;;;;;5067122;28;43819;-71
2023/07/18 05:31:32;;;;;;;1.37;1.37;;;23.50;69.70;;;;;;5075261;28;43337;-71
2023/07/18 05:34:00;;;;;;;1.43;1.40;;;23.50;69.80;;;;;;5078458;28;43559;-71
2023/07/18 05:36:28;;;;;;;1.33;1.33;;;23.50;69.90;;;;;;5085776;27;43865;-71
2023/07/18 05:38:57;;;;;;;1.40;1.40;;;23.40;69.70;;;;;;5069935;28;43344;-71
2023/07/18 05:41:25;;;;;;;1.37;1.37;;;23.40;70.30;;;;;;5081648;28;43361;-71
2023/07/18 05:43:53;;;;;;;1.50;1.50;;;23.40;70.50;;;;;;5072137;28;46959;-71
2023/07/18 05:46:21;;;;;;;1.20;1.20;;;23.30;70.30;;;;;;5065733;28;44818;-72
2023/07/18 05:48:52;;;;;;;1.30;1.30;;;23.30;70.00;;;;;;5079583;28;44097;-71
2023/07/18 05:51:20;;;;;;;1.67;1.67;;;23.30;69.90;;;;;;5090383;28;43501;-72
2023/07/18 05:53:49;;;;;;;1.20;1.20;;;23.30;69.90;;;;;;5073626;28;43780;-71
2023/07/18 05:56:18;;;;;;;1.40;1.40;;;23.20;70.00;;;;;;5081455;28;43432;-73
2023/07/18 05:58:46;;;;;;;1.30;1.30;;;23.20;70.10;;;;;;5069599;28;43393;-71
2023/07/18 06:01:14;;;;;;;1.30;1.30;;;23.20;70.20;;;;;;5072698;28;43376;-72
2023/07/18 06:03:42;;;;;;;1.20;1.20;;;23.20;70.30;;;;;;5071022;28;45352;-71
2023/07/18 06:06:11;;;;;;;1.40;1.40;;;23.20;70.30;;;;;;5062753;28;44503;-71
2023/07/18 06:08:39;;;;;;;1.37;1.37;;;23.20;70.60;;;;;;5085714;28;43452;-71
2023/07/18 06:11:09;;;;;;;1.33;1.33;;;23.20;71.20;;;;;;5061069;28;43941;-70
2023/07/18 06:13:39;;;;;;;1.40;1.40;;;23.30;71.10;;;;;;5069023;28;43683;-70
2023/07/18 06:16:06;;;;;;;1.50;1.50;;;23.40;70.40;;;;;;5083481;28;43413;-70
2023/07/18 06:18:35;;;;;;;1.40;1.40;;;23.60;69.90;;;;;;5088112;28;43558;-70
2023/07/18 06:21:03;;;;;;;1.27;1.27;;;23.70;69.10;;;;;;5062829;28;43420;-74
2023/07/18 06:23:31;;;;;;;1.40;1.40;;;23.90;68.40;;;;;;5079454;28;43612;-70
2023/07/18 06:25:59;;;;;;;1.60;1.60;;;24.20;67.70;;;;;;5066425;28;43407;-70
2023/07/18 06:28:27;;;;;;;2.03;1.35;;;24.40;67.00;;;;;;5072319;28;43381;-71
2023/07/18 06:30:57;;;;;;;1.55;1.55;;;24.50;66.60;;;;;;5063818;28;43461;-70
2023/07/18 06:33:25;;;;;;;1.20;1.20;;;24.70;66.20;;;;;;5064556;28;45416;-71
2023/07/18 06:35:53;;;;;;;1.35;1.35;;;24.80;65.80;;;;;;5077750;28;43431;-71
2023/07/18 06:38:21;;;;;;;1.40;1.40;;;24.80;65.40;;;;;;5069810;28;43400;-70
2023/07/18 06:40:49;;;;;;;1.50;1.50;;;24.90;65.40;;;;;;5064293;28;43791;-70
2023/07/18 06:43:17;;;;;;;1.50;1.50;;;24.90;65.10;;;;;;5051775;28;45675;-70
2023/07/18 06:45:46;;;;;;;1.67;1.67;;;24.80;65.10;;;;;;5080529;28;43353;-70
2023/07/18 06:48:15;;;;;;;1.40;1.40;;;24.70;65.70;;;;;;5086857;28;43320;-72
2023/07/18 06:50:45;;;;;;;1.50;1.40;;;24.50;66.20;;;;;;5057514;28;43590;-71
2023/07/18 06:53:14;;;;;;;1.70;1.70;;;24.40;66.80;;;;;;5062403;28;46025;-72
2023/07/18 06:55:42;;;;;;;1.30;1.30;;;24.30;67.40;;;;;;5085668;28;43472;-71
2023/07/18 06:58:10;;;;;;;1.40;1.40;;;24.10;68.30;;;;;;5083920;28;43343;-71
2023/07/18 07:00:39;;;;;;;1.40;1.40;;;24.00;67.80;;;;;;5079219;28;43458;-74
2023/07/18 07:03:08;;;;;;;1.60;1.60;;;23.90;68.30;;;;;;5058896;28;43958;-71
2023/07/18 07:05:38;;;;;;;1.53;1.53;;;23.90;68.60;;;;;;5069019;28;43507;-71
2023/07/18 07:08:08;;;;;;;1.60;1.60;;;23.80;68.60;;;;;;5072586;28;43394;-71
2023/07/18 07:10:38;;;;;;;1.50;1.50;;;23.70;68.60;;;;;;5073657;28;43434;-70
2023/07/18 07:13:05;;;;;;;1.50;1.50;;;23.60;69.10;;;;;;5051797;28;43831;-70
2023/07/18 07:15:34;;;;;;;1.50;1.50;;;23.70;69.30;;;;;;5078095;28;44052;-70
2023/07/18 07:18:02;;;;;;;1.50;1.50;;;23.70;68.80;;;;;;5080671;28;43444;-70
2023/07/18 07:20:31;;;;;;;1.37;1.37;;;23.90;68.60;;;;;;5066995;28;43507;-70
2023/07/18 07:23:00;;;;;;;1.43;1.43;;;23.90;68.20;;;;;;5069576;28;43606;-72
2023/07/18 07:25:29;;;;;;;1.40;1.40;;;23.90;68.30;;;;;;5075233;28;43455;-74
2023/07/18 07:27:57;;;;;;;1.60;1.60;;;23.90;68.40;;;;;;5063793;28;43397;-70
2023/07/18 07:30:25;;;;;;;1.37;1.37;;;23.80;68.60;;;;;;5063096;28;43650;-70
2023/07/18 07:32:53;;;;;;;1.60;1.60;;;23.70;68.90;;;;;;5068742;28;45996;-70
2023/07/18 07:35:22;;;;;;;1.40;1.40;;;23.70;69.00;;;;;;5070417;28;45099;-70
2023/07/18 07:37:50;;;;;;;1.60;1.60;;;23.60;69.00;;;;;;5054308;28;43970;-70
2023/07/18 07:40:20;;;;;;;1.40;1.40;;;23.60;69.10;;;;;;5061596;28;43435;-70
2023/07/18 07:42:48;;;;;;;1.40;1.40;;;23.50;69.60;;;;;;5071342;28;44806;-70
2023/07/18 07:45:16;;;;;;;1.30;1.30;;;23.60;69.50;;;;;;5065745;28;43322;-72
2023/07/18 07:47:44;;;;;;;1.50;1.37;;;23.70;69.10;;;;;;5082099;28;43412;-71
2023/07/18 07:50:13;;;;;;;1.40;1.40;;;23.80;68.70;;;;;;5082138;28;43977;-71
2023/07/18 07:52:41;;;;;;;1.40;1.40;;;23.80;68.70;;;;;;5067725;28;43645;-70
2023/07/18 07:55:10;;;;;;;1.30;1.30;;;23.80;68.80;;;;;;5079382;28;43491;-72
2023/07/18 07:57:40;;;;;;;1.60;1.60;;;23.70;68.70;;;;;;5049815;28;43423;-70
2023/07/18 08:00:09;;;;;;;2.03;1.93;;;23.70;69.30;;;;;;5071552;28;43646;-70
2023/07/18 08:02:37;;;;;;;1.60;1.60;;;23.60;69.40;;;;;;5071549;28;43838;-71
2023/07/18 08:05:06;;;;;;;1.80;1.80;;;23.60;69.50;;;;;;5059202;28;43871;-71
2023/07/18 08:07:34;;;;;;;1.80;1.70;;;23.50;69.20;;;;;;5070446;28;43383;-72
2023/07/18 08:10:02;;;;;;;2.50;2.30;;;23.50;69.70;;;;;;5068492;28;43447;-71
2023/07/18 08:12:30;;;;;;;3.67;2.10;;;23.50;69.90;;;;;;5085484;28;43572;-71
2023/07/18 08:15:00;;;;;;;3.17;2.40;;;23.40;69.90;;;;;;5081713;28;43522;-70
2023/07/18 08:17:28;;;;;;;3.50;2.50;;;23.40;69.70;;;;;;5064389;28;43978;-70
2023/07/18 08:19:56;;;;;;;4.13;2.70;;;23.40;69.70;;;;;;5087558;28;43646;-70
2023/07/18 08:22:24;;;;;;;3.43;2.70;;;23.40;70.30;;;;;;5064596;28;45770;-70
2023/07/18 08:24:52;;;;;;;3.70;2.83;;;23.40;70.20;;;;;;5056713;28;44704;-70
2023/07/18 08:27:20;;;;;;;6.33;3.13;;;23.50;69.70;;;;;;5078536;28;43289;-73
2023/07/18 08:29:48;;;;;;;3.60;2.93;;;23.60;69.30;;;;;;5065215;28;43503;-70
2023/07/18 08:32:17;;;;;;;3.03;2.77;;;23.60;69.20;;;;;;5082956;28;43631;-70
2023/07/18 08:34:45;;;;;;;3.77;3.07;;;23.60;67.60;;;;;;5079799;28;43510;-70
2023/07/18 08:37:13;;;;;;;3.97;2.40;;;23.60;68.00;;;;;;5059653;28;43981;-70
2023/07/18 08:39:41;;;;;;;5.37;2.57;;;23.50;68.50;;;;;;5051166;28;43408;-70
2023/07/18 08:42:09;;;;;;;5.27;2.77;;;23.50;68.80;;;;;;5078784;28;43940;-70
2023/07/18 08:44:37;;;;;;;3.93;2.57;;;23.50;68.90;;;;;;5081692;28;43954;-70
2023/07/18 08:47:06;;;;;;;27.53;3.87;;;23.40;69.00;;;;;;5065551;28;43540;-70
2023/07/18 08:49:36;;;;;;;10.40;3.27;;;23.40;69.00;;;;;;5077488;28;43402;-71
2023/07/18 08:52:05;;;;;;;10.60;3.97;;;23.40;69.50;;;;;;5073708;28;43606;-71
2023/07/18 08:54:34;;;;;;;8.30;2.83;;;23.40;68.50;;;;;;5063073;28;43423;-71
2023/07/18 08:57:03;;;;;;;9.70;2.87;;;23.40;67.70;;;;;;5056846;28;43551;-71
2023/07/18 08:59:31;;;;;;;3.27;2.80;;;23.50;67.70;;;;;;5083326;28;43331;-71
2023/07/18 09:01:59;;;;;;;4.57;2.90;;;23.60;66.90;;;;;;5057249;28;43599;-71
2023/07/18 09:04:28;;;;;;;5.27;2.90;;;23.70;67.20;;;;;;5059872;28;43512;-71
2023/07/18 09:07:01;;;;;;;9.77;3.00;;;23.60;66.90;;;;;;5051098;28;43417;-71
2023/07/18 09:09:29;;;;;;;4.30;2.60;;;23.50;67.30;;;;;;5064360;28;43380;-71
2023/07/18 09:11:57;;;;;;;4.83;2.70;;;23.50;67.60;;;;;;5063559;28;45894;-74
2023/07/18 09:14:31;;;;;;;4.60;2.50;;;23.40;68.30;;;;;;5067154;28;43466;-72
2023/07/18 09:17:00;;;;;;;5.70;2.70;;;23.50;68.00;;;;;;5080869;28;43407;-71
2023/07/18 09:19:38;;;;;;;5.30;2.60;;;23.40;68.00;;;;;;5072366;28;43483;-71
2023/07/18 09:22:08;;;;;;;5.97;2.70;;;23.40;68.60;;;;;;5086914;28;43764;-71
2023/07/18 09:24:36;;;;;;;3.10;2.47;;;23.30;68.50;;;;;;5056586;28;44811;-71
2023/07/18 09:27:05;;;;;;;4.50;2.30;;;23.30;68.60;;;;;;5068560;28;43371;-70
2023/07/18 09:29:33;;;;;;;4.33;2.70;;;23.30;68.60;;;;;;5071260;28;44028;-70
2023/07/18 09:32:01;;;;;;;2.37;2.20;;;23.30;68.60;;;;;;5076125;28;43592;-71
2023/07/18 09:34:29;;;;;;;3.43;2.40;;;23.30;69.30;;;;;;5084868;28;44055;-70
2023/07/18 09:36:57;;;;;;;2.60;2.10;;;23.30;69.30;;;;;;5085797;28;44047;-71
2023/07/18 09:39:27;;;;;;;2.47;2.33;;;23.30;69.30;;;;;;5055218;28;43435;-71
2023/07/18 09:41:56;;;;;;;2.50;2.30;;;23.30;68.90;;;;;;5080112;28;43775;-71
2023/07/18 09:44:26;;;;;;;2.57;2.30;;;23.20;69.50;;;;;;5086910;28;43405;-70
2023/07/18 09:47:01;;;;;;;2.33;2.13;;;23.30;69.70;;;;;;5060970;28;43340;-70
2023/07/18 09:49:29;;;;;;;2.47;2.37;;;23.30;69.40;;;;;;5077077;28;43451;-71
2023/07/18 09:52:03;;;;;;;3.83;2.20;;;23.50;69.10;;;;;;5081166;28;44072;-71
2023/07/18 09:54:33;;;;;;;2.60;2.40;;;23.60;68.70;;;;;;5084459;28;43847;-70
2023/07/18 09:57:03;;;;;;;2.40;2.30;;;23.70;68.60;;;;;;5086966;28;43805;-70
2023/07/18 09:59:31;;;;;;;2.50;2.30;;;23.60;68.40;;;;;;5055232;28;44173;-71
2023/07/18 10:02:04;;;;;;;2.30;2.17;;;23.60;68.50;;;;;;5084944;28;44002;-70
2023/07/18 10:04:32;;;;;;;2.00;1.90;;;23.60;69.10;;;;;;5085568;28;44004;-70
2023/07/18 10:07:00;;;;;;;1.90;1.80;;;23.50;69.00;;;;;;5073414;28;43911;-70
2023/07/18 10:09:28;;;;;;;2.07;1.87;;;23.50;69.00;;;;;;5086587;28;43402;-71
2023/07/18 10:12:11;;;;;;;2.00;1.90;;;23.50;69.00;;;;;;5076531;28;44073;-70
2023/07/18 10:14:56;;;;;;;2.10;2.00;;;23.40;69.70;;;;;;5047998;28;45043;-70
2023/07/18 10:17:37;;;;;;;2.30;2.20;;;23.40;69.60;;;;;;5087952;28;43411;-70
2023/07/18 10:20:11;;;;;;;2.17;2.07;;;23.40;69.50;;;;;;5070433;28;43410;-70
2023/07/18 10:22:46;;;;;;;2.07;1.97;;;23.40;69.30;;;;;;5069234;28;43851;-71
2023/07/18 10:25:14;;;;;;;2.63;2.43;;;23.30;69.90;;;;;;5077143;28;43463;-70
2023/07/18 10:27:44;;;;;;;1.80;1.70;;;23.30;70.00;;;;;;5070350;28;43449;-70
2023/07/18 10:30:15;;;;;;;2.13;2.03;;;23.40;69.70;;;;;;5072888;28;43379;-70
2023/07/18 10:32:44;;;;;;;1.77;1.60;;;23.50;69.40;;;;;;5066924;28;45057;-71
2023/07/18 10:35:13;;;;;;;2.00;2.00;;;23.60;69.00;;;;;;5084199;28;44010;-71
2023/07/18 10:37:43;;;;;;;2.10;2.00;;;23.70;68.90;;;;;;5084154;28;43356;-72
2023/07/18 10:40:12;;;;;;;1.70;1.70;;;23.70;68.90;;;;;;5082261;28;43335;-71
2023/07/18 10:42:42;;;;;;;2.10;2.00;;;23.60;68.70;;;;;;5077847;28;43599;-71
2023/07/18 10:45:11;;;;;;;2.00;1.90;;;23.50;69.30;;;;;;5084985;28;43411;-71
2023/07/18 10:47:39;;;;;;;2.03;1.93;;;23.50;69.40;;;;;;5066248;28;43526;-71
2023/07/18 10:50:09;;;;;;;1.97;1.87;;;23.50;69.50;;;;;;5063207;28;43462;-71
2023/07/18 10:52:37;;;;;;;1.90;1.80;;;23.40;69.30;;;;;;5075428;28;43553;-72
2023/07/18 10:55:06;;;;;;;2.20;2.10;;;23.40;70.00;;;;;;5066011;28;44975;-71
2023/07/18 10:57:35;;;;;;;2.13;2.03;;;23.40;70.10;;;;;;5081142;28;43479;-78
2023/07/18 11:00:05;;;;;;;1.90;1.80;;;23.40;69.90;;;;;;5083162;28;43593;-70
2023/07/18 11:02:38;;;;;;;2.00;1.90;;;23.40;69.70;;;;;;5044889;28;45662;-70
2023/07/18 11:05:10;;;;;;;1.73;1.73;;;23.40;69.90;;;;;;5058405;28;43387;-70
2023/07/18 11:07:40;;;;;;;2.47;1.93;;;23.30;70.40;;;;;;5064631;28;45014;-70
2023/07/18 11:10:09;;;;;;;1.80;1.80;;;23.40;70.20;;;;;;5071587;28;43319;-70
2023/07/18 11:12:37;;;;;;;2.00;1.87;;;23.50;70.00;;;;;;5071077;28;43612;-70
2023/07/18 11:15:06;;;;;;;1.83;1.80;;;23.60;69.50;;;;;;5070857;28;43536;-70
2023/07/18 11:17:34;;;;;;;1.93;1.83;;;23.60;69.20;;;;;;5087764;28;43379;-71
2023/07/18 11:20:04;;;;;;;2.13;2.03;;;23.70;69.30;;;;;;5078912;28;43483;-72
2023/07/18 11:22:32;;;;;;;2.10;2.00;;;23.60;69.10;;;;;;5057441;28;45283;-71
2023/07/18 11:25:00;;;;;;;1.70;1.70;;;23.60;69.90;;;;;;5065474;28;43634;-71
2023/07/18 11:27:29;;;;;;;1.80;1.70;;;23.50;69.90;;;;;;5069979;28;43420;-71
2023/07/18 11:29:58;;;;;;;1.53;1.53;;;23.50;69.90;;;;;;5084483;28;43395;-71
2023/07/18 11:32:39;;;;;;;2.07;1.80;;;23.40;69.60;;;;;;5048153;28;45523;-71
2023/07/18 11:35:09;;;;;;;2.03;1.93;;;23.40;69.80;;;;;;5052744;28;44952;-72
2023/07/18 11:37:41;;;;;;;2.23;2.13;;;23.40;70.40;;;;;;5076749;28;43549;-70
2023/07/18 11:40:10;;;;;;;1.70;1.70;;;23.40;70.20;;;;;;5065916;28;43470;-70
2023/07/18 11:42:46;;;;;;;1.70;1.70;;;23.50;69.90;;;;;;5062161;28;43849;-71
2023/07/18 11:45:15;;;;;;;1.50;1.50;;;23.60;69.70;;;;;;5086270;28;43431;-70
2023/07/18 11:47:48;;;;;;;2.13;2.03;;;23.60;69.60;;;;;;5088653;28;44166;-70
2023/07/18 11:50:18;;;;;;;1.87;1.87;;;23.60;69.40;;;;;;5060215;28;43484;-71
2023/07/18 11:52:47;;;;;;;2.10;2.00;;;23.50;69.30;;;;;;5060057;28;43867;-71
2023/07/18 11:55:16;;;;;;;1.80;1.70;;;23.50;70.30;;;;;;5050447;28;44677;-71
2023/07/18 11:57:44;;;;;;;2.00;1.90;;;23.50;70.00;;;;;;5068250;28;43366;-72
2023/07/18 12:00:13;;;;;;;2.00;1.90;;;23.40;69.90;;;;;;5062933;28;43396;-71
2023/07/18 12:02:41;;;;;;;1.87;1.87;;;23.40;69.70;;;;;;5077456;28;43870;-70
2023/07/18 12:05:10;;;;;;;3.30;2.00;;;23.40;70.40;;;;;;5081256;28;43454;-70
2023/07/18 12:07:39;;;;;;;1.83;1.80;;;23.30;70.40;;;;;;5080406;28;43444;-71
2023/07/18 12:10:10;;;;;;;1.70;1.60;;;23.30;70.30;;;;;;5068534;28;43448;-70
2023/07/18 12:12:39;;;;;;;2.13;2.03;;;23.30;69.90;;;;;;5058080;28;46078;-70
2023/07/18 12:15:08;;;;;;;2.23;2.00;;;23.30;69.90;;;;;;5082548;28;43441;-70
2023/07/18 12:17:36;;;;;;;4.00;2.00;;;23.30;70.80;;;;;;5081954;28;43420;-72
2023/07/18 12:20:04;;;;;;;2.17;1.80;;;23.30;70.40;;;;;;5059713;28;43906;-72
2023/07/18 12:22:33;;;;;;;2.00;1.80;;;23.40;70.00;;;;;;5056246;28;45873;-71
2023/07/18 12:25:03;;;;;;;1.70;1.67;;;23.50;69.50;;;;;;5060543;28;44345;-72
2023/07/18 12:27:31;;;;;;;1.70;1.70;;;23.60;69.30;;;;;;5080304;28;43409;-71
2023/07/18 12:29:59;;;;;;;2.80;2.07;;;23.60;69.30;;;;;;5064591;28;43485;-72
2023/07/18 12:32:27;;;;;;;3.27;2.00;;;23.60;69.20;;;;;;5077475;28;43953;-72
2023/07/18 12:34:59;;;;;;;1.87;1.77;;;23.60;69.50;;;;;;5071251;28;43859;-71
2023/07/18 12:37:27;;;;;;;1.80;1.70;;;23.50;69.90;;;;;;5079663;28;43474;-71
2023/07/18 12:39:54;;;;;;;1.60;1.60;;;23.50;69.80;;;;;;5076910;28;43858;-73
2023/07/18 12:42:24;;;;;;;1.80;1.80;;;23.50;69.70;;;;;;5078200;28;43890;-72
2023/07/18 12:44:52;;;;;;;1.80;1.80;;;23.40;69.70;;;;;;5076641;28;43350;-71
2023/07/18 12:47:20;;;;;;;2.17;1.93;;;23.40;70.40;;;;;;5054267;28;43638;-71
2023/07/18 12:49:48;;;;;;;2.50;2.20;;;23.40;70.40;;;;;;5087404;28;43459;-71
2023/07/18 12:52:19;;;;;;;1.93;1.83;;;23.50;70.20;;;;;;5081410;28;43632;-71
2023/07/18 12:54:47;;;;;;;1.90;1.90;;;23.50;70.00;;;;;;5062501;28;44443;-71